Time;durP1;ratioP1;P1;durP2;ratioP2;P2;SDS_P1;SDS_P2;PMS_P1;PMS_P2;Temp;Humidity;BMP_temperature;BMP_pressure;BME280_temperature;BME280_humidity;BME280_pressure;Samples;Min_cycle;Max_cycle;Signal;HPM_P1;HPM_P2
2021/10/11 00:00:44;;;;;;;17.98;16.05;;;6.10;99.90;;;;;;4995510;28;20211;-81
2021/10/11 00:03:13;;;;;;;21.73;17.90;;;6.10;99.90;;;;;;4991568;28;20227;-80
2021/10/11 00:05:39;;;;;;;16.05;14.35;;;6.10;99.90;;;;;;4995911;28;20215;-81
2021/10/11 00:08:06;;;;;;;17.45;14.80;;;6.00;99.90;;;;;;4993914;28;20204;-83
2021/10/11 00:10:33;;;;;;;18.08;15.18;;;6.00;99.90;;;;;;4979492;28;20219;-80
2021/10/11 00:12:59;;;;;;;16.77;14.40;;;6.00;99.90;;;;;;4997318;28;20238;-80
2021/10/11 00:15:27;;;;;;;16.48;14.40;;;5.90;99.90;;;;;;4977991;28;20211;-79
2021/10/11 00:17:55;;;;;;;15.75;14.27;;;5.90;99.90;;;;;;4985216;28;20210;-82
2021/10/11 00:20:24;;;;;;;18.48;16.70;;;5.90;99.90;;;;;;4984635;28;20697;-80
2021/10/11 00:22:51;;;;;;;17.65;14.65;;;5.80;99.90;;;;;;4989323;28;20347;-79
2021/10/11 00:25:18;;;;;;;14.45;12.95;;;5.80;99.90;;;;;;4976703;28;20958;-78
2021/10/11 00:27:45;;;;;;;17.65;15.35;;;5.80;99.90;;;;;;4977775;28;20216;-78
2021/10/11 00:30:13;;;;;;;15.05;13.50;;;5.80;99.90;;;;;;4996430;28;20573;-80
2021/10/11 00:32:41;;;;;;;19.35;16.08;;;5.80;99.90;;;;;;4997378;28;20231;-80
2021/10/11 00:35:08;;;;;;;18.60;16.77;;;5.70;99.90;;;;;;4978939;28;20590;-81
2021/10/11 00:37:36;;;;;;;21.45;16.48;;;5.70;99.90;;;;;;4993932;28;20212;-78
2021/10/11 00:40:04;;;;;;;16.95;15.25;;;5.70;99.90;;;;;;4994925;28;20208;-79
2021/10/11 00:42:30;;;;;;;17.05;15.38;;;5.70;99.90;;;;;;4986003;28;20207;-78
2021/10/11 00:44:57;;;;;;;23.15;18.30;;;5.60;99.90;;;;;;5015575;28;20216;-79
2021/10/11 00:47:24;;;;;;;20.25;16.88;;;5.60;99.90;;;;;;5008359;28;20208;-79
2021/10/11 00:49:51;;;;;;;19.60;17.58;;;5.60;99.90;;;;;;5012309;28;20211;-79
2021/10/11 00:52:17;;;;;;;17.60;15.65;;;5.60;99.90;;;;;;4991953;28;20239;-80
2021/10/11 00:54:45;;;;;;;19.42;17.42;;;5.60;99.90;;;;;;4992634;28;20205;-80
2021/10/11 00:57:12;;;;;;;18.95;16.40;;;5.50;99.90;;;;;;4982524;28;20208;-79
2021/10/11 00:59:41;;;;;;;18.10;16.35;;;5.50;99.90;;;;;;4996724;28;20207;-80
2021/10/11 01:02:08;;;;;;;19.13;16.80;;;5.50;99.90;;;;;;4998891;28;20228;-79
2021/10/11 01:04:34;;;;;;;18.52;16.55;;;5.50;99.90;;;;;;4987410;28;20247;-79
2021/10/11 01:07:01;;;;;;;25.17;17.40;;;5.50;99.90;;;;;;4987032;28;20208;-79
2021/10/11 01:09:28;;;;;;;19.95;17.75;;;5.50;99.90;;;;;;4994513;28;20208;-79
2021/10/11 01:11:59;;;;;;;18.50;16.67;;;5.50;99.90;;;;;;4987884;28;20208;-79
2021/10/11 01:14:26;;;;;;;17.80;15.85;;;5.50;99.90;;;;;;4994188;28;20219;-79
2021/10/11 01:16:53;;;;;;;19.30;15.90;;;5.50;99.90;;;;;;5000104;28;20208;-80
2021/10/11 01:19:19;;;;;;;17.77;15.50;;;5.50;99.90;;;;;;4999102;28;20211;-79
2021/10/11 01:21:47;;;;;;;20.45;17.15;;;5.50;99.90;;;;;;5000718;28;20774;-79
2021/10/11 01:24:14;;;;;;;20.20;17.10;;;5.40;99.90;;;;;;4988403;28;20228;-79
2021/10/11 01:26:43;;;;;;;17.02;15.32;;;5.40;99.90;;;;;;4980814;28;20204;-79
2021/10/11 01:29:11;;;;;;;19.77;17.27;;;5.40;99.90;;;;;;4990215;28;20224;-79
2021/10/11 01:31:38;;;;;;;19.27;16.05;;;5.40;99.90;;;;;;4986005;28;20209;-79
2021/10/11 01:34:06;;;;;;;17.45;15.80;;;5.30;99.90;;;;;;4984306;28;20231;-78
2021/10/11 01:36:33;;;;;;;18.05;16.25;;;5.30;99.90;;;;;;4983439;28;20670;-78
2021/10/11 01:39:06;;;;;;;19.20;17.20;;;5.30;99.90;;;;;;4998008;28;20200;-78
2021/10/11 01:41:33;;;;;;;18.88;14.85;;;5.30;99.90;;;;;;4981101;28;20583;-78
2021/10/11 01:44:00;;;;;;;18.98;16.02;;;5.30;99.90;;;;;;4990545;28;20216;-80
2021/10/11 01:46:27;;;;;;;21.38;16.33;;;5.30;99.90;;;;;;4999553;28;20222;-80
2021/10/11 01:48:53;;;;;;;17.77;15.63;;;5.20;99.90;;;;;;4996827;28;20227;-79
2021/10/11 01:51:22;;;;;;;22.23;14.65;;;5.20;99.90;;;;;;4999175;28;20211;-79
2021/10/11 01:53:49;;;;;;;18.23;16.33;;;5.20;99.90;;;;;;4990492;28;20260;-80
2021/10/11 01:56:17;;;;;;;18.70;15.93;;;5.20;99.90;;;;;;4986838;28;20215;-79
2021/10/11 01:58:44;;;;;;;20.27;16.30;;;5.20;99.90;;;;;;4993909;28;20204;-79
2021/10/11 02:01:11;;;;;;;17.60;15.50;;;5.20;99.90;;;;;;4979910;28;20697;-78
2021/10/11 02:03:37;;;;;;;18.70;15.88;;;5.20;99.90;;;;;;4979261;28;20694;-79
2021/10/11 02:06:04;;;;;;;19.08;17.23;;;5.20;99.90;;;;;;4978931;28;20200;-80
2021/10/11 02:08:31;;;;;;;18.33;15.77;;;5.20;99.90;;;;;;4988978;28;20205;-80
2021/10/11 02:10:58;;;;;;;19.75;15.73;;;5.20;99.90;;;;;;4993577;28;20200;-79
2021/10/11 02:13:26;;;;;;;20.60;17.35;;;5.20;99.90;;;;;;4985190;28;20242;-80
2021/10/11 02:15:52;;;;;;;19.88;16.15;;;5.20;99.90;;;;;;4981365;28;20213;-79
2021/10/11 02:18:19;;;;;;;18.05;16.15;;;5.20;99.90;;;;;;4981027;28;20215;-79
2021/10/11 02:20:46;;;;;;;20.73;16.75;;;5.10;99.90;;;;;;4996802;28;20302;-79
2021/10/11 02:23:13;;;;;;;21.65;18.20;;;5.10;99.90;;;;;;4997671;28;20764;-79
2021/10/11 02:25:39;;;;;;;20.50;16.95;;;5.10;99.90;;;;;;4978851;28;20575;-79
2021/10/11 02:28:06;;;;;;;24.33;18.75;;;5.10;99.90;;;;;;4979944;28;20227;-79
2021/10/11 02:30:34;;;;;;;20.48;17.08;;;5.10;99.90;;;;;;4991725;28;20554;-79
2021/10/11 02:33:01;;;;;;;20.25;18.05;;;5.10;99.90;;;;;;4989063;28;20235;-79
2021/10/11 02:35:28;;;;;;;19.13;16.08;;;5.10;99.90;;;;;;4992332;28;20613;-78
2021/10/11 02:37:55;;;;;;;18.90;16.45;;;5.00;99.90;;;;;;4998576;28;20215;-79
2021/10/11 02:40:21;;;;;;;19.60;17.60;;;5.00;99.90;;;;;;4993855;28;20211;-79
2021/10/11 02:42:48;;;;;;;23.35;21.13;;;5.00;99.90;;;;;;4981088;28;20219;-80
2021/10/11 02:45:15;;;;;;;22.65;19.02;;;5.00;99.90;;;;;;4993228;28;20305;-80
2021/10/11 02:47:43;;;;;;;27.00;20.75;;;5.00;99.90;;;;;;4997709;28;20204;-80
2021/10/11 02:50:10;;;;;;;21.50;18.95;;;5.00;99.90;;;;;;4985558;28;20595;-80
2021/10/11 02:52:37;;;;;;;20.83;16.83;;;5.00;99.90;;;;;;4979259;28;20216;-80
2021/10/11 02:55:05;;;;;;;21.63;18.33;;;5.00;99.90;;;;;;4979003;28;20208;-80
2021/10/11 02:57:32;;;;;;;20.70;18.60;;;5.00;99.90;;;;;;4979308;28;20219;-80
2021/10/11 02:59:59;;;;;;;24.75;19.92;;;5.00;99.90;;;;;;4982615;28;20587;-80
2021/10/11 03:02:25;;;;;;;24.85;22.27;;;5.00;99.90;;;;;;4993689;28;20211;-80
2021/10/11 03:04:54;;;;;;;23.42;19.58;;;5.00;99.90;;;;;;4997789;28;20702;-80
2021/10/11 03:07:20;;;;;;;21.50;19.27;;;5.00;99.90;;;;;;4995246;28;20211;-81
2021/10/11 03:09:47;;;;;;;21.42;18.30;;;5.00;99.90;;;;;;4984297;28;20215;-81
2021/10/11 03:12:14;;;;;;;21.63;19.10;;;5.00;99.90;;;;;;4978256;28;20231;-80
2021/10/11 03:14:41;;;;;;;26.65;20.75;;;5.00;99.90;;;;;;4983340;28;20874;-80
2021/10/11 03:17:07;;;;;;;22.90;20.05;;;5.00;99.90;;;;;;4978227;28;20212;-79
2021/10/11 03:19:34;;;;;;;22.50;18.85;;;5.00;99.90;;;;;;4995001;28;20211;-80
2021/10/11 03:22:03;;;;;;;22.10;19.50;;;4.90;99.90;;;;;;4983219;28;20200;-80
2021/10/11 03:24:30;;;;;;;26.10;21.92;;;4.90;99.90;;;;;;4982345;28;20215;-80
2021/10/11 03:26:57;;;;;;;26.02;19.35;;;4.90;99.90;;;;;;4997495;28;20704;-80
2021/10/11 03:29:23;;;;;;;22.10;18.50;;;4.90;99.90;;;;;;4991430;28;20220;-79
2021/10/11 03:31:50;;;;;;;20.25;18.15;;;4.90;99.90;;;;;;4985560;28;20670;-80
2021/10/11 03:34:17;;;;;;;23.00;20.45;;;4.90;99.90;;;;;;4978866;28;20225;-79
2021/10/11 03:36:44;;;;;;;24.67;20.88;;;4.80;99.90;;;;;;4977783;28;20208;-80
2021/10/11 03:39:12;;;;;;;24.00;18.48;;;4.80;99.90;;;;;;4985133;28;20209;-80
2021/10/11 03:41:39;;;;;;;26.75;20.15;;;4.80;99.90;;;;;;4996782;28;20218;-79
2021/10/11 03:44:06;;;;;;;24.17;21.45;;;4.80;99.90;;;;;;4988213;28;20227;-80
2021/10/11 03:46:34;;;;;;;21.27;19.13;;;4.80;99.90;;;;;;4996708;28;20207;-80
2021/10/11 03:49:01;;;;;;;23.05;18.88;;;4.80;99.90;;;;;;4990897;28;20211;-80
2021/10/11 03:51:27;;;;;;;21.92;17.98;;;4.80;99.90;;;;;;4988262;28;20212;-81
2021/10/11 03:53:54;;;;;;;24.33;19.98;;;4.80;99.90;;;;;;4977120;28;20320;-80
2021/10/11 03:56:22;;;;;;;23.60;19.75;;;4.80;99.90;;;;;;4984362;28;20207;-80
2021/10/11 03:58:49;;;;;;;24.83;19.40;;;4.80;99.90;;;;;;4993133;28;20201;-81
2021/10/11 04:01:16;;;;;;;21.85;18.60;;;4.70;99.90;;;;;;4977088;28;20211;-81
2021/10/11 04:03:43;;;;;;;25.23;21.00;;;4.70;99.90;;;;;;4978948;28;20282;-80
2021/10/11 04:06:10;;;;;;;24.30;20.63;;;4.70;99.90;;;;;;4994934;28;20199;-80
2021/10/11 04:08:39;;;;;;;36.38;23.00;;;4.70;99.90;;;;;;4978426;28;20208;-80
2021/10/11 04:11:09;;;;;;;24.90;20.85;;;4.70;99.90;;;;;;4989522;28;20220;-80
2021/10/11 04:13:37;;;;;;;20.85;18.65;;;4.60;99.90;;;;;;4977571;28;20623;-80
2021/10/11 04:16:05;;;;;;;21.92;19.60;;;4.60;99.90;;;;;;4977253;28;20211;-80
2021/10/11 04:18:32;;;;;;;24.70;21.20;;;4.60;99.90;;;;;;4977847;28;20213;-80
2021/10/11 04:20:59;;;;;;;25.38;20.25;;;4.60;99.90;;;;;;4977181;28;20200;-80
2021/10/11 04:23:26;;;;;;;22.25;19.35;;;4.70;99.90;;;;;;4977088;28;20232;-80
2021/10/11 04:25:54;;;;;;;23.80;18.85;;;4.70;99.90;;;;;;4996315;28;20741;-81
2021/10/11 04:28:21;;;;;;;27.38;20.67;;;4.70;99.90;;;;;;4996616;28;20216;-80
2021/10/11 04:30:49;;;;;;;21.77;18.77;;;4.60;99.90;;;;;;4989730;28;20204;-80
2021/10/11 04:33:17;;;;;;;26.85;20.58;;;4.70;99.90;;;;;;4997539;28;20582;-80
2021/10/11 04:35:45;;;;;;;18.77;16.17;;;4.60;99.90;;;;;;4982930;28;20204;-81
2021/10/11 04:38:12;;;;;;;21.23;18.83;;;4.70;99.90;;;;;;4979032;28;20299;-78
2021/10/11 04:40:40;;;;;;;27.23;19.98;;;4.70;99.90;;;;;;4978052;28;20200;-79
2021/10/11 04:43:06;;;;;;;18.30;16.40;;;4.70;99.90;;;;;;4985366;28;20227;-80
2021/10/11 04:45:33;;;;;;;19.55;17.45;;;4.70;99.90;;;;;;4996803;28;20203;-79
2021/10/11 04:48:03;;;;;;;20.48;16.13;;;4.70;99.90;;;;;;4996497;28;20203;-78
2021/10/11 04:50:32;;;;;;;23.27;16.63;;;4.70;99.90;;;;;;4983510;28;20227;-78
2021/10/11 04:52:59;;;;;;;20.20;16.85;;;4.70;99.90;;;;;;4997719;28;20266;-79
2021/10/11 04:55:26;;;;;;;21.02;16.70;;;4.70;99.90;;;;;;4989604;28;20214;-79
2021/10/11 04:57:55;;;;;;;20.25;18.23;;;4.70;99.90;;;;;;4978878;28;20219;-78
2021/10/11 05:00:22;;;;;;;19.92;17.65;;;4.80;99.90;;;;;;4992174;28;20236;-78
2021/10/11 05:02:49;;;;;;;22.15;16.67;;;4.80;99.90;;;;;;4978571;28;20232;-78
2021/10/11 05:05:17;;;;;;;21.63;18.58;;;4.80;99.90;;;;;;4991045;28;20202;-79
2021/10/11 05:07:44;;;;;;;19.67;17.65;;;4.80;99.90;;;;;;4994641;28;20632;-78
2021/10/11 05:10:10;;;;;;;22.95;17.17;;;4.80;99.90;;;;;;4987895;28;20200;-79
2021/10/11 05:12:37;;;;;;;23.58;19.63;;;4.70;99.90;;;;;;4977941;28;20581;-78
2021/10/11 05:15:05;;;;;;;24.35;18.30;;;4.60;99.90;;;;;;4990299;28;20220;-79
2021/10/11 05:17:31;;;;;;;24.88;20.65;;;4.60;99.90;;;;;;4997720;28;20207;-80
2021/10/11 05:19:58;;;;;;;20.80;17.38;;;4.70;99.90;;;;;;4994685;28;20199;-81
2021/10/11 05:22:26;;;;;;;19.75;17.85;;;4.70;99.90;;;;;;4993894;28;20209;-80
2021/10/11 05:24:53;;;;;;;22.85;20.52;;;4.70;99.90;;;;;;4977498;28;20201;-80
2021/10/11 05:27:20;;;;;;;23.13;17.67;;;4.70;99.90;;;;;;4996108;28;20223;-80
2021/10/11 05:29:47;;;;;;;24.17;19.13;;;4.70;99.90;;;;;;4992247;28;20577;-79
2021/10/11 05:32:14;;;;;;;21.83;19.70;;;4.50;99.90;;;;;;4980834;28;20211;-79
2021/10/11 05:34:40;;;;;;;25.67;19.63;;;4.20;99.90;;;;;;4996001;28;20329;-80
2021/10/11 05:37:07;;;;;;;27.05;20.90;;;4.20;99.90;;;;;;4987448;28;20708;-79
2021/10/11 05:39:35;;;;;;;29.63;21.42;;;4.40;99.90;;;;;;4997523;28;20210;-79
2021/10/11 05:42:05;;;;;;;25.48;20.98;;;4.50;99.90;;;;;;4999283;28;20219;-79
2021/10/11 05:44:32;;;;;;;24.52;19.42;;;4.60;99.90;;;;;;4987050;28;20221;-79
2021/10/11 05:46:59;;;;;;;22.33;19.25;;;4.70;99.90;;;;;;4979196;28;20208;-80
2021/10/11 05:49:26;;;;;;;24.23;18.08;;;4.70;99.90;;;;;;4988310;28;20200;-79
2021/10/11 05:51:52;;;;;;;22.35;19.73;;;4.80;99.90;;;;;;4992866;28;20215;-78
2021/10/11 05:54:19;;;;;;;25.35;21.08;;;4.70;99.90;;;;;;4985072;28;20243;-80
2021/10/11 05:56:47;;;;;;;26.23;20.35;;;4.70;99.90;;;;;;4997756;28;20218;-79
2021/10/11 05:59:14;;;;;;;27.95;22.02;;;4.50;99.90;;;;;;4996632;28;20667;-79
2021/10/11 06:01:41;;;;;;;26.02;21.75;;;4.50;99.90;;;;;;4998367;28;20200;-79
2021/10/11 06:04:07;;;;;;;23.05;19.52;;;4.60;99.90;;;;;;4995571;28;20243;-79
2021/10/11 06:06:34;;;;;;;21.52;19.27;;;4.80;99.90;;;;;;4989898;28;20200;-81
2021/10/11 06:09:01;;;;;;;26.10;19.27;;;4.80;99.90;;;;;;4998683;28;20218;-81
2021/10/11 06:11:27;;;;;;;25.77;20.10;;;4.80;99.90;;;;;;4998357;28;20200;-80
2021/10/11 06:13:55;;;;;;;29.50;22.42;;;4.90;99.90;;;;;;4999719;28;20224;-80
2021/10/11 06:16:22;;;;;;;26.13;19.35;;;5.00;99.90;;;;;;4995584;28;20205;-80
2021/10/11 06:18:49;;;;;;;26.77;20.20;;;5.00;99.90;;;;;;4983846;28;20228;-79
2021/10/11 06:21:16;;;;;;;25.48;19.65;;;5.00;99.90;;;;;;5003787;28;20214;-80
2021/10/11 06:23:42;;;;;;;27.30;21.33;;;5.10;99.90;;;;;;5003969;28;20238;-80
2021/10/11 06:26:09;;;;;;;24.30;19.70;;;5.10;99.90;;;;;;5005751;28;20204;-79
2021/10/11 06:28:36;;;;;;;22.33;20.02;;;5.20;99.90;;;;;;4988958;28;20227;-79
2021/10/11 06:31:05;;;;;;;25.73;20.33;;;5.30;99.90;;;;;;5005673;28;20203;-78
2021/10/11 06:33:31;;;;;;;26.83;21.48;;;5.40;99.90;;;;;;5009531;28;20207;-77
2021/10/11 06:35:58;;;;;;;25.92;22.58;;;5.40;99.90;;;;;;5018063;28;20256;-77
2021/10/11 06:38:25;;;;;;;25.27;19.92;;;5.40;99.90;;;;;;5019632;28;20255;-78
2021/10/11 06:40:52;;;;;;;22.95;18.77;;;5.60;99.90;;;;;;5003681;28;20204;-79
2021/10/11 06:43:19;;;;;;;23.20;20.95;;;5.70;99.90;;;;;;4991449;28;20791;-79
2021/10/11 06:45:46;;;;;;;22.95;20.55;;;5.90;99.90;;;;;;5008354;28;20569;-78
2021/10/11 06:48:17;;;;;;;21.35;18.83;;;5.90;99.90;;;;;;4989237;28;20216;-79
2021/10/11 06:50:45;;;;;;;21.70;19.40;;;6.00;99.90;;;;;;5003842;28;20204;-79
2021/10/11 06:53:12;;;;;;;23.63;21.15;;;6.10;99.90;;;;;;5008335;28;20228;-79
2021/10/11 06:55:38;;;;;;;25.17;19.10;;;6.20;99.90;;;;;;4994084;28;20233;-79
2021/10/11 06:58:05;;;;;;;25.63;19.77;;;6.20;99.90;;;;;;4987560;28;20212;-80
2021/10/11 07:00:32;;;;;;;22.67;19.00;;;6.30;99.90;;;;;;4987144;28;20212;-79
2021/10/11 07:02:59;;;;;;;22.50;18.42;;;6.40;99.90;;;;;;4989462;28;20589;-79
2021/10/11 07:05:28;;;;;;;22.20;18.85;;;6.40;99.90;;;;;;5002291;28;20208;-78
2021/10/11 07:07:57;;;;;;;19.33;16.75;;;6.50;99.90;;;;;;4977783;28;20211;-78
2021/10/11 07:10:24;;;;;;;23.45;19.15;;;6.60;99.90;;;;;;4987824;28;20230;-84
2021/10/11 07:12:51;;;;;;;20.63;16.92;;;6.70;99.90;;;;;;5000279;28;20233;-81
2021/10/11 07:15:18;;;;;;;22.13;16.63;;;6.70;99.90;;;;;;4979637;28;20263;-78
2021/10/11 07:17:45;;;;;;;21.55;17.67;;;6.70;99.90;;;;;;4983172;28;20215;-80
2021/10/11 07:20:12;;;;;;;19.55;16.85;;;6.70;99.90;;;;;;4991017;28;20207;-78
2021/10/11 07:22:42;;;;;;;18.25;16.15;;;6.70;99.90;;;;;;5000840;28;20203;-83
2021/10/11 07:25:09;;;;;;;28.27;19.05;;;6.80;99.90;;;;;;4993954;28;20218;-79
2021/10/11 07:27:36;;;;;;;22.25;17.05;;;6.90;99.90;;;;;;4990363;28;20216;-79
2021/10/11 07:30:03;;;;;;;25.33;19.73;;;7.00;99.90;;;;;;4989034;28;20207;-79
2021/10/11 07:32:30;;;;;;;21.98;17.45;;;7.10;99.90;;;;;;4997254;28;20204;-78
2021/10/11 07:34:57;;;;;;;22.98;16.33;;;7.20;99.90;;;;;;4990742;28;20231;-78
2021/10/11 07:37:23;;;;;;;21.20;18.77;;;7.20;99.90;;;;;;4980515;28;20214;-79
2021/10/11 07:39:52;;;;;;;21.20;16.33;;;7.30;99.90;;;;;;4984176;28;20196;-78
2021/10/11 07:42:19;;;;;;;21.50;17.75;;;7.40;99.90;;;;;;4999783;28;20208;-78
2021/10/11 07:44:45;;;;;;;21.02;17.75;;;7.50;99.90;;;;;;4989956;28;20259;-78
2021/10/11 07:47:12;;;;;;;26.05;17.40;;;7.50;99.90;;;;;;4978739;28;20215;-78
2021/10/11 07:49:39;;;;;;;18.08;16.20;;;7.60;99.90;;;;;;4986655;28;20203;-81
2021/10/11 07:52:06;;;;;;;21.35;16.85;;;7.70;99.90;;;;;;4997959;28;20211;-82
2021/10/11 07:54:33;;;;;;;20.17;17.13;;;7.80;99.90;;;;;;4989928;28;20220;-80
2021/10/11 07:57:01;;;;;;;20.25;18.23;;;8.00;99.90;;;;;;4979104;28;20217;-80
2021/10/11 07:59:28;;;;;;;20.70;16.95;;;8.20;99.90;;;;;;4987955;28;20220;-78
2021/10/11 08:01:56;;;;;;;22.67;17.65;;;8.40;99.90;;;;;;4996710;28;20287;-81
2021/10/11 08:04:22;;;;;;;19.38;17.33;;;8.40;99.90;;;;;;4998151;28;20220;-80
2021/10/11 08:06:50;;;;;;;22.40;20.13;;;8.60;99.90;;;;;;4996992;28;20217;-81
2021/10/11 08:09:16;;;;;;;19.92;17.45;;;8.70;99.90;;;;;;5000068;28;20212;-81
2021/10/11 08:11:43;;;;;;;25.45;20.08;;;8.90;99.90;;;;;;4998870;28;20215;-80
2021/10/11 08:14:11;;;;;;;22.45;17.63;;;9.00;99.90;;;;;;4979186;28;20240;-80
2021/10/11 08:16:40;;;;;;;24.73;16.95;;;9.00;99.90;;;;;;4979181;28;20209;-79
2021/10/11 08:19:07;;;;;;;20.70;18.65;;;9.20;99.90;;;;;;4998924;28;20218;-79
2021/10/11 08:21:34;;;;;;;20.77;17.63;;;9.30;99.90;;;;;;4988894;28;20211;-80
2021/10/11 08:24:01;;;;;;;20.73;17.55;;;9.40;99.90;;;;;;4979406;28;20240;-80
2021/10/11 08:26:28;;;;;;;19.58;15.55;;;9.60;99.90;;;;;;4995256;28;20274;-81
2021/10/11 08:28:55;;;;;;;20.90;17.02;;;9.70;99.90;;;;;;4981260;28;20228;-79
2021/10/11 08:31:23;;;;;;;18.10;16.20;;;9.80;99.90;;;;;;4995960;28;20639;-79
2021/10/11 08:33:50;;;;;;;22.07;17.00;;;10.00;99.90;;;;;;5002419;28;20468;-79
2021/10/11 08:36:17;;;;;;;18.08;16.10;;;10.00;99.90;;;;;;4986445;28;20488;-77
2021/10/11 08:38:44;;;;;;;19.70;17.70;;;10.10;99.90;;;;;;4981927;28;20213;-78
2021/10/11 08:41:12;;;;;;;18.87;16.87;;;10.30;99.90;;;;;;4982295;28;20462;-79
2021/10/11 08:43:41;;;;;;;19.40;16.43;;;10.50;99.90;;;;;;4984235;28;20478;-79
2021/10/11 08:46:08;;;;;;;18.60;16.80;;;10.70;99.90;;;;;;4982990;28;20866;-79
2021/10/11 08:48:36;;;;;;;16.83;15.13;;;10.80;99.90;;;;;;4982710;28;20445;-80
2021/10/11 08:51:05;;;;;;;21.27;15.50;;;10.90;99.90;;;;;;4986898;28;20459;-80
2021/10/11 08:53:33;;;;;;;15.70;14.13;;;11.00;99.90;;;;;;4980450;28;20514;-84
2021/10/11 08:56:00;;;;;;;25.93;16.40;;;11.00;99.90;;;;;;4996661;28;20485;-82
2021/10/11 08:58:27;;;;;;;17.63;15.83;;;11.00;99.90;;;;;;5006469;28;20452;-85
2021/10/11 09:01:05;;;;;;;20.60;16.10;;;11.10;99.90;;;;;;4993082;28;20588;-80
2021/10/11 09:03:32;;;;;;;17.80;15.93;;;11.30;99.90;;;;;;4987989;28;20469;-80
2021/10/11 09:06:06;;;;;;;22.57;16.40;;;11.40;99.90;;;;;;5006135;28;20606;-80
2021/10/11 09:08:34;;;;;;;18.40;16.07;;;11.60;99.90;;;;;;5005336;28;20476;-80
2021/10/11 09:11:02;;;;;;;15.07;13.60;;;11.80;99.90;;;;;;4999179;28;20450;-80
2021/10/11 09:13:31;;;;;;;16.70;13.80;;;11.90;99.90;;;;;;5006853;28;20469;-80
2021/10/11 09:16:05;;;;;;;15.67;14.03;;;11.90;99.90;;;;;;4985284;28;20493;-81
2021/10/11 09:18:33;;;;;;;15.53;12.80;;;12.10;99.90;;;;;;4985201;28;20475;-81
2021/10/11 09:21:00;;;;;;;17.83;13.90;;;12.10;99.90;;;;;;4992689;28;20459;-80
2021/10/11 09:23:30;;;;;;;14.10;12.40;;;12.10;99.90;;;;;;4983648;28;20522;-82
2021/10/11 09:25:57;;;;;;;16.10;14.37;;;12.40;99.90;;;;;;5005847;28;20458;-80
2021/10/11 09:28:25;;;;;;;14.30;13.00;;;12.40;99.90;;;;;;5007479;28;20468;-80
2021/10/11 09:30:52;;;;;;;14.73;13.23;;;12.50;99.90;;;;;;4998800;28;20450;-82
2021/10/11 09:33:21;;;;;;;14.50;13.10;;;12.70;99.90;;;;;;5003264;28;20475;-81
2021/10/11 09:35:51;;;;;;;15.03;12.07;;;12.80;99.90;;;;;;4987207;28;20843;-80
2021/10/11 09:38:20;;;;;;;15.70;14.10;;;12.70;99.20;;;;;;4985613;28;20458;-80
2021/10/11 09:40:49;;;;;;;13.67;11.97;;;12.80;98.80;;;;;;4991175;28;20482;-80
2021/10/11 09:43:17;;;;;;;15.03;13.53;;;13.00;98.90;;;;;;5000323;28;20478;-82
2021/10/11 09:45:45;;;;;;;19.43;14.10;;;13.00;98.20;;;;;;4996068;28;20443;-81
2021/10/11 09:48:13;;;;;;;13.83;12.43;;;12.80;98.70;;;;;;4996605;28;20459;-81
2021/10/11 09:50:41;;;;;;;14.10;12.70;;;13.00;99.70;;;;;;4986232;28;20842;-85
2021/10/11 09:53:13;;;;;;;16.50;14.77;;;13.10;99.10;;;;;;5004227;28;20483;-83
2021/10/11 09:55:41;;;;;;;14.80;13.30;;;13.00;98.90;;;;;;5001381;28;20480;-83
2021/10/11 09:58:12;;;;;;;16.47;14.83;;;13.10;98.80;;;;;;4991435;28;20458;-84
2021/10/11 10:00:41;;;;;;;16.70;14.33;;;13.30;98.20;;;;;;5001590;28;20452;-82
2021/10/11 10:03:09;;;;;;;15.67;14.17;;;13.50;97.90;;;;;;5011837;28;20470;-82
2021/10/11 10:05:39;;;;;;;14.77;13.30;;;13.60;98.10;;;;;;5011709;28;20451;-84
2021/10/11 10:08:10;;;;;;;14.37;13.07;;;13.80;98.00;;;;;;5011264;28;20462;-82
2021/10/11 10:10:37;;;;;;;13.50;12.20;;;14.00;98.40;;;;;;5011603;28;20455;-83
2021/10/11 10:13:17;;;;;;;13.63;12.33;;;13.90;97.40;;;;;;5010569;28;20498;-83
2021/10/11 10:15:45;;;;;;;15.03;12.87;;;14.10;97.60;;;;;;5011994;28;20483;-83
2021/10/11 10:18:14;;;;;;;16.27;12.63;;;14.20;97.30;;;;;;5011830;28;20475;-82
2021/10/11 10:20:51;;;;;;;17.80;13.00;;;14.30;95.90;;;;;;5010708;28;20448;-83
2021/10/11 10:23:27;;;;;;;14.87;13.23;;;13.90;95.70;;;;;;5011633;28;20466;-84
2021/10/11 10:25:53;;;;;;;16.60;12.93;;;13.80;96.60;;;;;;5010746;28;20457;-83
2021/10/11 10:28:24;;;;;;;12.67;11.40;;;13.80;96.30;;;;;;5011094;28;20454;-84
2021/10/11 10:30:58;;;;;;;13.77;12.30;;;13.80;96.40;;;;;;5012092;28;20458;-82
2021/10/11 10:33:35;;;;;;;13.13;11.93;;;13.80;96.70;;;;;;5012388;28;20533;-83
2021/10/11 10:36:03;;;;;;;13.77;10.87;;;14.10;96.60;;;;;;5010568;28;20513;-83
2021/10/11 10:38:31;;;;;;;12.87;11.67;;;14.10;96.00;;;;;;5012073;28;20515;-83
2021/10/11 10:40:58;;;;;;;13.20;11.90;;;14.50;95.70;;;;;;5011216;28;20455;-83
2021/10/11 10:43:26;;;;;;;12.67;11.30;;;14.60;95.90;;;;;;5010071;28;20478;-83
2021/10/11 10:45:53;;;;;;;10.93;9.93;;;14.90;94.50;;;;;;5009716;28;20917;-82
2021/10/11 10:48:22;;;;;;;10.33;9.43;;;15.00;94.30;;;;;;5010416;28;20455;-83
2021/10/11 10:50:50;;;;;;;11.90;10.80;;;15.10;93.90;;;;;;5010415;28;20481;-82
2021/10/11 10:53:18;;;;;;;13.37;11.97;;;15.30;94.00;;;;;;5010405;28;20620;-83
2021/10/11 10:55:45;;;;;;;15.73;11.60;;;15.70;92.60;;;;;;5010902;28;20484;-84
2021/10/11 10:58:16;;;;;;;13.30;11.90;;;16.30;93.30;;;;;;5009431;28;20454;-84
2021/10/11 11:00:45;;;;;;;12.67;11.37;;;17.10;92.30;;;;;;5010611;28;21034;-82
2021/10/11 11:03:14;;;;;;;12.47;11.13;;;17.40;90.80;;;;;;5011565;28;20480;-83
2021/10/11 11:05:43;;;;;;;14.13;12.23;;;17.80;91.00;;;;;;5011444;28;20469;-84
2021/10/11 11:08:10;;;;;;;13.17;10.47;;;18.40;90.20;;;;;;5010544;28;20449;-84
2021/10/11 11:10:39;;;;;;;13.03;11.80;;;18.70;88.00;;;;;;5009542;28;20474;-84
2021/10/11 11:13:07;;;;;;;13.90;12.60;;;18.70;87.10;;;;;;5010602;28;20470;-84
2021/10/11 11:15:35;;;;;;;14.63;13.10;;;19.00;84.80;;;;;;5011024;28;20485;-84
2021/10/11 11:18:05;;;;;;;14.60;13.20;;;19.40;82.80;;;;;;5011593;28;20454;-84
2021/10/11 11:20:34;;;;;;;13.90;11.90;;;19.60;81.10;;;;;;5011508;28;20470;-83
2021/10/11 11:23:02;;;;;;;14.27;10.80;;;19.70;79.30;;;;;;5010331;28;20494;-84
2021/10/11 11:25:32;;;;;;;11.83;10.80;;;19.90;79.20;;;;;;5009485;28;20443;-84
2021/10/11 11:28:00;;;;;;;15.30;13.77;;;20.30;80.10;;;;;;5010782;28;20459;-84
2021/10/11 11:30:28;;;;;;;13.73;12.43;;;20.50;75.90;;;;;;5010958;28;20457;-84
2021/10/11 11:32:56;;;;;;;15.13;13.67;;;20.70;76.70;;;;;;5011117;28;20476;-84
2021/10/11 11:35:26;;;;;;;15.60;14.00;;;21.00;74.60;;;;;;5009247;28;20485;-84
2021/10/11 11:37:55;;;;;;;13.93;12.57;;;20.50;72.10;;;;;;5010453;28;20459;-84
2021/10/11 11:40:25;;;;;;;12.70;11.53;;;20.50;74.80;;;;;;5011499;28;20948;-84
2021/10/11 11:42:53;;;;;;;14.80;13.40;;;20.50;74.60;;;;;;5010811;28;20472;-83
2021/10/11 11:45:22;;;;;;;14.77;13.27;;;20.40;73.90;;;;;;5008614;28;20954;-83
2021/10/11 11:47:49;;;;;;;15.03;13.50;;;20.80;72.60;;;;;;5008648;28;20459;-84
2021/10/11 11:50:21;;;;;;;16.00;12.57;;;20.30;71.10;;;;;;5009264;28;20461;-83
2021/10/11 11:53:00;;;;;;;14.60;13.20;;;20.10;73.80;;;;;;5009627;28;20471;-84
2021/10/11 11:55:28;;;;;;;15.10;13.60;;;20.00;73.60;;;;;;5008343;28;20428;-84
2021/10/11 11:57:55;;;;;;;14.03;12.60;;;20.50;75.00;;;;;;5009292;28;20454;-84
2021/10/11 12:00:23;;;;;;;14.80;13.40;;;20.60;71.40;;;;;;5009920;28;20444;-83
2021/10/11 12:02:51;;;;;;;15.67;14.07;;;20.20;71.70;;;;;;5009191;28;20483;-84
2021/10/11 12:05:19;;;;;;;15.10;13.63;;;20.60;73.90;;;;;;5009644;28;20457;-84
2021/10/11 12:07:46;;;;;;;15.53;13.93;;;21.00;71.80;;;;;;5008690;28;20451;-84
2021/10/11 12:10:20;;;;;;;14.73;13.00;;;20.50;71.00;;;;;;5010666;28;20443;-84
2021/10/11 12:12:47;;;;;;;17.00;15.30;;;19.70;73.30;;;;;;5008581;28;20505;-83
2021/10/11 12:15:19;;;;;;;16.13;14.70;;;18.60;74.80;;;;;;5007367;28;20457;-84
2021/10/11 12:17:46;;;;;;;16.10;14.57;;;18.20;78.00;;;;;;5009282;28;20485;-84
2021/10/11 12:20:13;;;;;;;15.00;13.60;;;17.90;78.70;;;;;;5013113;28;20431;-83
2021/10/11 12:22:40;;;;;;;15.80;14.30;;;18.00;80.10;;;;;;5011893;28;20465;-81
2021/10/11 12:25:10;;;;;;;14.00;12.60;;;17.80;80.80;;;;;;5014582;28;20451;-81
2021/10/11 12:27:39;;;;;;;14.90;13.30;;;17.60;80.60;;;;;;5015774;28;20453;-81
2021/10/11 12:30:09;;;;;;;14.70;13.23;;;17.70;81.30;;;;;;5014133;28;20464;-84
2021/10/11 12:32:37;;;;;;;16.03;12.13;;;18.50;81.90;;;;;;5014978;28;20461;-82
2021/10/11 12:35:05;;;;;;;15.10;13.60;;;19.20;79.60;;;;;;5009965;28;20460;-82